Time;durP1;ratioP1;P1;durP2;ratioP2;P2;SDS_P1;SDS_P2;PMS_P1;PMS_P2;Temp;Humidity;BMP_temperature;BMP_pressure;BME280_temperature;BME280_humidity;BME280_pressure;Samples;Min_cycle;Max_cycle;Signal;HPM_P1;HPM_P2
2023/06/04 00:00:23;;;;;;;;;6.00;6.00;;;;;;;;6375141;22;8744;-83
2023/06/04 00:02:48;;;;;;;;;5.00;5.00;;;;;;;;6375697;22;8771;-83
2023/06/04 00:05:13;;;;;;;;;6.00;6.00;;;;;;;;6375548;22;8820;-82
2023/06/04 00:07:38;;;;;;;;;5.25;4.75;;;;;;;;6375787;22;8848;-84
2023/06/04 00:10:04;;;;;;;;;5.50;5.50;;;;;;;;6376047;22;8719;-81
2023/06/04 00:12:29;;;;;;;;;8.50;5.25;;;;;;;;6375612;22;9484;-80
2023/06/04 00:14:55;;;;;;;;;4.50;4.00;;;;;;;;6346637;22;8747;-80
2023/06/04 00:17:20;;;;;;;;;4.00;4.00;;;;;;;;6375659;22;8762;-81
2023/06/04 00:19:45;;;;;;;;;5.50;4.75;;;;;;;;6374959;22;8774;-81
2023/06/04 00:22:10;;;;;;;;;7.00;5.00;;;;;;;;6375731;22;9507;-84
2023/06/04 00:24:37;;;;;;;;;6.00;4.00;;;;;;;;6375235;22;8756;-85
2023/06/04 00:27:02;;;;;;;;;7.25;6.25;;;;;;;;6375135;22;8920;-84
2023/06/04 00:29:27;;;;;;;;;5.25;3.50;;;;;;;;6375289;22;11269;-82
2023/06/04 00:31:52;;;;;;;;;5.75;5.75;;;;;;;;6375809;22;8728;-81
2023/06/04 00:34:18;;;;;;;;;6.25;6.25;;;;;;;;6375405;22;8802;-81
2023/06/04 00:36:43;;;;;;;;;4.75;4.75;;;;;;;;6375532;22;8831;-82
2023/06/04 00:39:08;;;;;;;;;3.75;3.75;;;;;;;;6375506;22;8758;-82
2023/06/04 00:41:34;;;;;;;;;5.00;4.00;;;;;;;;6375241;22;8897;-81
2023/06/04 00:44:01;;;;;;;;;4.50;4.25;;;;;;;;6375365;22;8736;-82
2023/06/04 00:46:27;;;;;;;;;4.00;4.00;;;;;;;;6375254;22;8755;-82
2023/06/04 00:48:53;;;;;;;;;4.50;4.50;;;;;;;;6375501;22;11007;-82
2023/06/04 00:51:20;;;;;;;;;7.75;4.25;;;;;;;;6374884;22;12303;-82
2023/06/04 00:53:45;;;;;;;;;5.50;4.50;;;;;;;;6375178;22;8720;-80
2023/06/04 00:56:11;;;;;;;;;4.00;4.00;;;;;;;;6374796;22;12217;-80
2023/06/04 00:58:39;;;;;;;;;4.75;4.75;;;;;;;;6373829;22;8746;-81
2023/06/04 01:01:07;;;;;;;;;4.25;4.00;;;;;;;;6375244;22;11390;-82
2023/06/04 01:03:35;;;;;;;;;7.50;5.75;;;;;;;;6374886;22;12084;-82
2023/06/04 01:06:08;;;;;;;;;5.00;5.00;;;;;;;;6375171;22;11748;-83
2023/06/04 01:08:34;;;;;;;;;4.00;4.00;;;;;;;;6375294;22;11305;-82
2023/06/04 01:11:00;;;;;;;;;3.25;3.00;;;;;;;;6375100;22;11066;-80
2023/06/04 01:13:25;;;;;;;;;3.25;3.25;;;;;;;;6374678;22;9531;-81
2023/06/04 01:15:50;;;;;;;;;3.25;3.25;;;;;;;;6375179;22;8739;-81
2023/06/04 01:18:27;;;;;;;;;4.75;4.75;;;;;;;;6375257;22;8735;-81
2023/06/04 01:20:54;;;;;;;;;4.25;4.25;;;;;;;;6375328;22;8717;-82
2023/06/04 01:23:35;;;;;;;;;5.00;5.00;;;;;;;;6374692;22;11157;-82
2023/06/04 01:26:04;;;;;;;;;3.00;3.00;;;;;;;;6346648;22;11357;-83
2023/06/04 01:28:33;;;;;;;;;5.00;5.00;;;;;;;;6346443;22;11404;-82
2023/06/04 01:30:59;;;;;;;;;6.00;5.00;;;;;;;;6375305;22;11380;-82
2023/06/04 01:33:25;;;;;;;;;5.75;4.75;;;;;;;;6376527;22;11103;-82
2023/06/04 01:35:51;;;;;;;;;4.50;4.00;;;;;;;;6376940;22;8801;-83
2023/06/04 01:38:16;;;;;;;;;7.00;5.00;;;;;;;;6396946;22;11004;-82
2023/06/04 01:40:41;;;;;;;;;3.75;3.75;;;;;;;;6390740;22;8752;-82
2023/06/04 01:43:06;;;;;;;;;6.00;6.00;;;;;;;;6376933;22;8752;-82
2023/06/04 01:45:32;;;;;;;;;6.00;5.75;;;;;;;;6376599;22;8732;-82
2023/06/04 01:47:57;;;;;;;;;4.50;4.00;;;;;;;;6376668;22;8779;-82
2023/06/04 01:50:22;;;;;;;;;5.00;5.00;;;;;;;;6376332;22;8905;-83
2023/06/04 01:52:48;;;;;;;;;5.25;4.00;;;;;;;;6376022;22;8743;-82
2023/06/04 01:55:14;;;;;;;;;6.25;5.00;;;;;;;;6376296;22;8743;-83
2023/06/04 01:57:43;;;;;;;;;5.25;3.50;;;;;;;;6376454;22;8717;-82
2023/06/04 02:00:10;;;;;;;;;5.00;5.00;;;;;;;;6376316;22;11073;-83
2023/06/04 02:02:36;;;;;;;;;4.00;3.75;;;;;;;;6376417;22;10940;-81
2023/06/04 02:05:01;;;;;;;;;4.75;4.75;;;;;;;;6376282;22;11121;-81
2023/06/04 02:07:26;;;;;;;;;3.75;3.75;;;;;;;;6376123;22;8736;-82
2023/06/04 02:09:51;;;;;;;;;6.00;4.25;;;;;;;;6376668;22;8724;-82
2023/06/04 02:12:17;;;;;;;;;3.75;3.75;;;;;;;;6376486;22;8744;-80
2023/06/04 02:14:44;;;;;;;;;4.25;3.75;;;;;;;;6376469;22;8732;-81
2023/06/04 02:17:12;;;;;;;;;5.00;4.00;;;;;;;;6376194;22;8747;-83
2023/06/04 02:19:45;;;;;;;;;3.00;3.00;;;;;;;;6376042;22;11108;-82
2023/06/04 02:22:13;;;;;;;;;8.50;3.25;;;;;;;;6376027;22;11027;-82
2023/06/04 02:24:39;;;;;;;;;5.25;4.75;;;;;;;;6375840;22;10973;-83
2023/06/04 02:27:05;;;;;;;;;3.25;3.25;;;;;;;;6376246;22;11320;-83
2023/06/04 02:29:30;;;;;;;;;2.25;2.25;;;;;;;;6375500;22;8726;-82
2023/06/04 02:31:56;;;;;;;;;6.50;5.25;;;;;;;;6376282;22;10999;-82
2023/06/04 02:34:21;;;;;;;;;3.00;3.00;;;;;;;;6376558;22;8744;-83
2023/06/04 02:36:48;;;;;;;;;4.75;4.00;;;;;;;;6375975;22;8735;-83
2023/06/04 02:39:14;;;;;;;;;4.00;4.00;;;;;;;;6347146;22;8756;-83
2023/06/04 02:41:39;;;;;;;;;5.50;5.00;;;;;;;;6376046;22;11029;-84
2023/06/04 02:44:04;;;;;;;;;3.00;2.25;;;;;;;;6376570;22;8755;-83
2023/06/04 02:46:29;;;;;;;;;5.00;3.50;;;;;;;;6376092;22;8762;-82
2023/06/04 02:48:54;;;;;;;;;4.75;3.75;;;;;;;;6376095;22;9515;-82
2023/06/04 02:51:20;;;;;;;;;4.00;4.00;;;;;;;;6376053;22;9523;-82
2023/06/04 02:53:46;;;;;;;;;3.25;3.25;;;;;;;;6375918;22;8752;-81
2023/06/04 02:56:11;;;;;;;;;4.00;3.00;;;;;;;;6375904;22;8948;-81
2023/06/04 02:58:39;;;;;;;;;3.25;3.25;;;;;;;;6376130;22;8766;-83
2023/06/04 03:01:05;;;;;;;;;3.75;3.75;;;;;;;;6376041;22;8724;-82
2023/06/04 03:03:31;;;;;;;;;4.00;4.00;;;;;;;;6347423;22;11409;-81
2023/06/04 03:05:56;;;;;;;;;4.00;2.50;;;;;;;;6376082;22;8704;-83
2023/06/04 03:08:21;;;;;;;;;4.50;4.50;;;;;;;;6375947;22;10851;-80
2023/06/04 03:10:47;;;;;;;;;4.75;3.50;;;;;;;;6376645;22;8854;-80
2023/06/04 03:13:12;;;;;;;;;4.00;4.00;;;;;;;;6376141;22;8740;-82
2023/06/04 03:15:38;;;;;;;;;4.00;3.25;;;;;;;;6376650;22;8728;-83
2023/06/04 03:18:04;;;;;;;;;4.75;3.00;;;;;;;;6377037;22;8739;-83
2023/06/04 03:20:29;;;;;;;;;3.50;3.50;;;;;;;;6376727;22;11224;-83
2023/06/04 03:22:54;;;;;;;;;4.25;4.25;;;;;;;;6376112;22;8740;-86
2023/06/04 03:25:20;;;;;;;;;3.25;3.25;;;;;;;;6375867;22;8751;-81
2023/06/04 03:27:45;;;;;;;;;4.50;4.00;;;;;;;;6376388;22;8783;-79
2023/06/04 03:30:10;;;;;;;;;4.00;4.00;;;;;;;;6376238;22;8732;-82
2023/06/04 03:32:35;;;;;;;;;6.00;3.75;;;;;;;;6375700;22;8768;-83
2023/06/04 03:35:01;;;;;;;;;4.50;3.25;;;;;;;;6376037;22;8838;-82
2023/06/04 03:37:26;;;;;;;;;2.50;2.50;;;;;;;;6375509;22;8758;-82
2023/06/04 03:39:51;;;;;;;;;6.00;4.75;;;;;;;;6375756;22;8756;-82
2023/06/04 03:42:17;;;;;;;;;4.00;3.25;;;;;;;;6376102;22;8752;-82
2023/06/04 03:44:42;;;;;;;;;4.75;3.75;;;;;;;;6375476;22;8862;-82
2023/06/04 03:47:07;;;;;;;;;5.00;3.00;;;;;;;;6347542;22;8780;-81
2023/06/04 03:49:32;;;;;;;;;4.00;2.00;;;;;;;;6377266;22;8758;-81
2023/06/04 03:51:57;;;;;;;;;2.75;2.75;;;;;;;;6353912;22;8847;-81
2023/06/04 03:54:23;;;;;;;;;4.25;3.50;;;;;;;;6388580;22;8743;-80
2023/06/04 03:56:48;;;;;;;;;3.00;3.00;;;;;;;;6376254;22;8772;-80
2023/06/04 03:59:13;;;;;;;;;4.25;4.25;;;;;;;;6375701;22;8855;-82
2023/06/04 04:01:39;;;;;;;;;2.00;2.00;;;;;;;;6375799;22;8732;-81
2023/06/04 04:04:04;;;;;;;;;2.00;2.00;;;;;;;;6375846;22;8847;-81
2023/06/04 04:06:30;;;;;;;;;3.50;3.50;;;;;;;;6346681;22;8747;-81
2023/06/04 04:08:55;;;;;;;;;5.00;3.75;;;;;;;;6375956;22;8751;-82
2023/06/04 04:11:20;;;;;;;;;4.00;4.00;;;;;;;;6376338;22;9508;-83
2023/06/04 04:13:46;;;;;;;;;4.00;4.00;;;;;;;;6375929;22;8743;-82
2023/06/04 04:16:11;;;;;;;;;4.00;4.00;;;;;;;;6375759;22;8735;-83
2023/06/04 04:18:36;;;;;;;;;5.75;4.00;;;;;;;;6375780;22;8732;-84
2023/06/04 04:21:02;;;;;;;;;4.25;3.50;;;;;;;;6375498;22;8830;-84
2023/06/04 04:23:28;;;;;;;;;4.00;3.00;;;;;;;;6374692;22;8740;-85
2023/06/04 04:25:53;;;;;;;;;3.75;3.75;;;;;;;;6375811;22;11340;-84
2023/06/04 04:28:18;;;;;;;;;4.00;4.00;;;;;;;;6375761;22;8736;-84
2023/06/04 04:30:44;;;;;;;;;4.25;4.00;;;;;;;;6375662;22;8775;-84
2023/06/04 04:33:10;;;;;;;;;3.00;3.00;;;;;;;;6375721;22;8748;-83
2023/06/04 04:35:35;;;;;;;;;3.75;3.75;;;;;;;;6375676;22;8724;-84
2023/06/04 04:38:03;;;;;;;;;3.25;3.00;;;;;;;;6375982;22;9449;-85
2023/06/04 04:40:28;;;;;;;;;3.25;3.25;;;;;;;;6375436;22;8770;-84
2023/06/04 04:42:53;;;;;;;;;3.00;3.00;;;;;;;;6375927;22;12136;-85
2023/06/04 04:45:18;;;;;;;;;2.75;2.75;;;;;;;;6376255;22;8834;-85
2023/06/04 04:47:43;;;;;;;;;3.00;3.00;;;;;;;;6376483;22;8728;-84
2023/06/04 04:50:09;;;;;;;;;4.75;4.00;;;;;;;;6375841;22;8758;-85
2023/06/04 04:52:34;;;;;;;;;4.75;4.00;;;;;;;;6375263;22;9556;-83
2023/06/04 04:54:59;;;;;;;;;3.25;3.25;;;;;;;;6375708;22;8858;-83
2023/06/04 04:57:24;;;;;;;;;3.00;3.00;;;;;;;;6375537;22;9725;-83
2023/06/04 04:59:50;;;;;;;;;5.00;3.50;;;;;;;;6376992;22;8897;-85
2023/06/04 05:02:15;;;;;;;;;4.25;3.00;;;;;;;;6375426;22;9515;-85
2023/06/04 05:04:40;;;;;;;;;5.75;2.75;;;;;;;;6375137;22;8846;-85
2023/06/04 05:07:06;;;;;;;;;2.00;2.00;;;;;;;;6375517;22;9998;-85
2023/06/04 05:09:31;;;;;;;;;2.75;2.75;;;;;;;;6375744;22;8724;-84
2023/06/04 05:11:56;;;;;;;;;4.00;4.00;;;;;;;;6375596;22;8736;-83
2023/06/04 05:14:21;;;;;;;;;4.00;4.00;;;;;;;;6376954;22;8748;-83
2023/06/04 05:16:48;;;;;;;;;3.00;2.25;;;;;;;;6376726;22;8744;-84
2023/06/04 05:19:13;;;;;;;;;4.75;2.00;;;;;;;;6376231;22;8728;-86
2023/06/04 05:21:39;;;;;;;;;4.25;3.25;;;;;;;;6377370;22;10909;-85
2023/06/04 05:24:04;;;;;;;;;2.50;2.00;;;;;;;;6377284;22;9589;-85
2023/06/04 05:26:29;;;;;;;;;4.00;3.00;;;;;;;;6376254;22;8720;-85
2023/06/04 05:28:55;;;;;;;;;2.00;2.00;;;;;;;;6377031;22;8728;-84
2023/06/04 05:31:21;;;;;;;;;4.50;3.00;;;;;;;;6377154;22;8777;-83
2023/06/04 05:33:47;;;;;;;;;4.00;3.00;;;;;;;;6376445;22;10880;-85
2023/06/04 05:36:13;;;;;;;;;3.50;2.00;;;;;;;;6376865;22;10999;-85
2023/06/04 05:38:38;;;;;;;;;3.00;1.25;;;;;;;;6376484;22;10840;-88
2023/06/04 05:41:03;;;;;;;;;3.50;2.00;;;;;;;;6347039;22;9504;-87
2023/06/04 05:43:29;;;;;;;;;4.00;3.00;;;;;;;;6375351;22;10044;-82
2023/06/04 05:45:54;;;;;;;;;4.25;3.00;;;;;;;;6376944;22;9610;-84
2023/06/04 05:48:19;;;;;;;;;2.50;2.50;;;;;;;;6378001;22;8756;-84
2023/06/04 05:50:44;;;;;;;;;4.00;3.00;;;;;;;;6376544;22;8751;-82
2023/06/04 05:53:10;;;;;;;;;3.50;2.00;;;;;;;;6347877;22;9570;-83
2023/06/04 05:55:35;;;;;;;;;3.00;3.00;;;;;;;;6376831;22;8838;-85
2023/06/04 05:58:00;;;;;;;;;3.00;2.75;;;;;;;;6376828;22;8748;-84
2023/06/04 06:00:26;;;;;;;;;4.00;2.00;;;;;;;;6379268;22;8782;-82
2023/06/04 06:02:52;;;;;;;;;3.25;3.25;;;;;;;;6382102;22;8755;-87
2023/06/04 06:05:18;;;;;;;;;2.00;2.00;;;;;;;;6397354;22;8711;-84
2023/06/04 06:07:43;;;;;;;;;2.50;1.50;;;;;;;;6380929;22;10741;-85
2023/06/04 06:10:09;;;;;;;;;3.00;2.25;;;;;;;;6377861;22;8817;-85
2023/06/04 06:12:34;;;;;;;;;2.00;2.00;;;;;;;;6378253;22;8740;-85
2023/06/04 06:15:00;;;;;;;;;3.00;3.00;;;;;;;;6376684;22;8864;-85
2023/06/04 06:17:25;;;;;;;;;3.50;3.50;;;;;;;;6376564;22;8747;-86
2023/06/04 06:19:51;;;;;;;;;4.00;2.50;;;;;;;;6376641;22;9464;-85
2023/06/04 06:22:16;;;;;;;;;1.75;1.75;;;;;;;;6376403;22;8786;-85
2023/06/04 06:24:41;;;;;;;;;3.00;2.50;;;;;;;;6375335;22;8768;-84
2023/06/04 06:27:07;;;;;;;;;2.25;2.25;;;;;;;;6377515;22;8748;-85
2023/06/04 06:29:33;;;;;;;;;3.00;3.00;;;;;;;;6377730;22;8932;-84
2023/06/04 06:31:59;;;;;;;;;2.75;2.75;;;;;;;;6376052;22;8847;-85
2023/06/04 06:34:24;;;;;;;;;3.75;3.75;;;;;;;;6376506;22;10772;-82
2023/06/04 06:36:49;;;;;;;;;3.75;3.75;;;;;;;;6375404;22;8795;-83
2023/06/04 06:39:15;;;;;;;;;1.50;1.50;;;;;;;;6376406;22;8767;-84
2023/06/04 06:41:40;;;;;;;;;2.50;2.50;;;;;;;;6375626;22;8744;-85
2023/06/04 06:44:05;;;;;;;;;1.00;1.00;;;;;;;;6376335;22;8740;-84
2023/06/04 06:46:30;;;;;;;;;2.00;2.00;;;;;;;;6376020;22;8759;-81
2023/06/04 06:48:56;;;;;;;;;5.00;2.00;;;;;;;;6376313;22;8720;-82
2023/06/04 06:51:21;;;;;;;;;5.00;3.00;;;;;;;;6376474;22;8736;-80
2023/06/04 06:53:48;;;;;;;;;3.00;3.00;;;;;;;;6376078;22;8759;-82
2023/06/04 06:56:14;;;;;;;;;1.75;1.75;;;;;;;;6375875;22;9626;-81
2023/06/04 06:58:39;;;;;;;;;3.00;3.00;;;;;;;;6375894;22;10830;-82
2023/06/04 07:01:05;;;;;;;;;4.00;2.25;;;;;;;;6375618;22;8756;-81
2023/06/04 07:03:31;;;;;;;;;3.50;3.50;;;;;;;;6375763;22;9504;-81
2023/06/04 07:05:56;;;;;;;;;7.50;3.75;;;;;;;;6375734;22;10946;-82
2023/06/04 07:08:21;;;;;;;;;5.00;3.75;;;;;;;;6376330;22;8834;-83
2023/06/04 07:10:46;;;;;;;;;2.00;2.00;;;;;;;;6376328;22;8770;-83
2023/06/04 07:13:11;;;;;;;;;3.50;2.75;;;;;;;;6375923;22;8748;-82
2023/06/04 07:15:36;;;;;;;;;2.50;2.50;;;;;;;;6375850;22;8735;-82
2023/06/04 07:18:02;;;;;;;;;2.00;2.00;;;;;;;;6376261;22;8800;-84
2023/06/04 07:20:27;;;;;;;;;4.50;3.75;;;;;;;;6375908;22;8802;-84
2023/06/04 07:22:52;;;;;;;;;2.00;2.00;;;;;;;;6377127;22;8724;-84
2023/06/04 07:25:17;;;;;;;;;2.00;2.00;;;;;;;;6375927;22;8956;-83
2023/06/04 07:27:42;;;;;;;;;4.00;3.00;;;;;;;;6375795;22;9472;-84
2023/06/04 07:30:09;;;;;;;;;3.00;3.00;;;;;;;;6376179;22;8852;-82
2023/06/04 07:32:34;;;;;;;;;3.75;3.75;;;;;;;;6346861;22;9063;-83
2023/06/04 07:34:59;;;;;;;;;1.75;1.75;;;;;;;;6347763;22;10989;-82
2023/06/04 07:37:24;;;;;;;;;2.75;2.75;;;;;;;;6376171;22;8774;-81
2023/06/04 07:39:49;;;;;;;;;2.50;2.50;;;;;;;;6375949;22;9547;-82
2023/06/04 07:42:15;;;;;;;;;4.50;3.00;;;;;;;;6347472;22;8763;-81
2023/06/04 07:44:40;;;;;;;;;3.50;2.00;;;;;;;;6376190;22;8740;-83
2023/06/04 07:47:05;;;;;;;;;3.50;3.00;;;;;;;;6375818;22;8744;-82
2023/06/04 07:49:30;;;;;;;;;3.00;3.00;;;;;;;;6375754;22;8736;-74
2023/06/04 07:51:55;;;;;;;;;3.25;3.00;;;;;;;;6375993;22;8724;-74
2023/06/04 07:54:21;;;;;;;;;2.00;2.00;;;;;;;;6375355;22;8764;-75
2023/06/04 07:56:46;;;;;;;;;2.00;2.00;;;;;;;;6374408;22;8770;-72
2023/06/04 07:59:12;;;;;;;;;2.75;2.75;;;;;;;;6375207;22;8886;-72
2023/06/04 08:01:37;;;;;;;;;2.00;2.00;;;;;;;;6347122;22;8731;-73
2023/06/04 08:04:02;;;;;;;;;2.25;1.00;;;;;;;;6375693;22;8787;-71
2023/06/04 08:06:27;;;;;;;;;4.00;3.00;;;;;;;;6376023;22;8751;-80
2023/06/04 08:08:52;;;;;;;;;3.75;3.75;;;;;;;;6347455;22;8877;-77
2023/06/04 08:11:18;;;;;;;;;4.50;3.50;;;;;;;;6375915;22;8767;-76
2023/06/04 08:13:43;;;;;;;;;5.00;3.75;;;;;;;;6375352;22;8782;-78
2023/06/04 08:16:10;;;;;;;;;4.00;4.00;;;;;;;;6376306;22;8755;-82
2023/06/04 08:18:37;;;;;;;;;2.50;2.50;;;;;;;;6375367;22;8731;-73
2023/06/04 08:21:03;;;;;;;;;2.25;2.00;;;;;;;;6378872;22;11558;-73
2023/06/04 08:23:28;;;;;;;;;3.00;2.00;;;;;;;;6375389;22;10994;-73
2023/06/04 08:25:53;;;;;;;;;3.25;3.25;;;;;;;;6375657;22;8744;-72
2023/06/04 08:28:19;;;;;;;;;2.00;2.00;;;;;;;;6375667;22;8771;-73
2023/06/04 08:30:45;;;;;;;;;3.50;2.75;;;;;;;;6375810;22;8744;-78
2023/06/04 08:33:10;;;;;;;;;2.75;2.75;;;;;;;;6375305;22;10727;-77
2023/06/04 08:35:36;;;;;;;;;4.25;3.25;;;;;;;;6375270;22;8771;-75
2023/06/04 08:38:02;;;;;;;;;2.00;2.00;;;;;;;;6375263;22;8763;-75
2023/06/04 08:40:27;;;;;;;;;3.50;2.75;;;;;;;;6347085;22;8943;-76
2023/06/04 08:42:57;;;;;;;;;2.50;2.50;;;;;;;;6374892;22;11183;-76
2023/06/04 08:45:23;;;;;;;;;4.00;3.00;;;;;;;;6375605;22;8916;-77
2023/06/04 08:47:49;;;;;;;;;4.00;3.00;;;;;;;;6374626;22;10969;-76
2023/06/04 08:50:16;;;;;;;;;3.00;3.00;;;;;;;;6375611;22;8752;-77
2023/06/04 08:52:42;;;;;;;;;3.00;3.00;;;;;;;;6375431;22;8831;-76
2023/06/04 08:55:09;;;;;;;;;4.25;3.00;;;;;;;;6375108;22;11070;-76
2023/06/04 08:57:34;;;;;;;;;6.00;3.25;;;;;;;;6375154;22;8724;-76
2023/06/04 09:00:00;;;;;;;;;1.00;1.00;;;;;;;;6375176;22;10865;-85
2023/06/04 09:02:27;;;;;;;;;2.25;2.00;;;;;;;;6375058;22;8754;-80
2023/06/04 09:04:53;;;;;;;;;2.75;2.75;;;;;;;;6375217;22;8724;-75
2023/06/04 09:07:18;;;;;;;;;2.50;2.50;;;;;;;;6375444;22;10802;-77
2023/06/04 09:09:45;;;;;;;;;4.50;3.75;;;;;;;;6374725;22;8837;-78
2023/06/04 09:12:11;;;;;;;;;2.25;2.25;;;;;;;;6374948;22;8800;-71
2023/06/04 09:14:36;;;;;;;;;3.25;3.25;;;;;;;;6375175;22;10852;-79
2023/06/04 09:17:02;;;;;;;;;3.75;3.50;;;;;;;;6375144;22;10788;-78
2023/06/04 09:19:27;;;;;;;;;4.50;2.50;;;;;;;;6375228;22;8870;-73
2023/06/04 09:21:54;;;;;;;;;1.00;1.00;;;;;;;;6375219;22;8771;-79
2023/06/04 09:24:19;;;;;;;;;2.25;2.25;;;;;;;;6373762;22;8771;-76
2023/06/04 09:26:44;;;;;;;;;3.00;3.00;;;;;;;;6374687;22;10576;-78
2023/06/04 09:29:10;;;;;;;;;2.50;1.50;;;;;;;;6375341;22;8728;-78
2023/06/04 09:31:37;;;;;;;;;3.00;3.00;;;;;;;;6375195;22;8772;-84
2023/06/04 09:34:02;;;;;;;;;2.00;2.00;;;;;;;;6374893;22;8712;-79
2023/06/04 09:36:31;;;;;;;;;4.00;4.00;;;;;;;;6375483;22;10738;-78
2023/06/04 09:38:56;;;;;;;;;4.00;3.00;;;;;;;;6374531;22;8743;-89
2023/06/04 09:41:21;;;;;;;;;2.00;2.00;;;;;;;;6374788;22;10673;-82
2023/06/04 09:43:47;;;;;;;;;1.50;1.50;;;;;;;;6374769;22;8778;-80
2023/06/04 09:46:13;;;;;;;;;1.00;1.00;;;;;;;;6375033;22;8751;-84
2023/06/04 09:48:39;;;;;;;;;1.75;1.75;;;;;;;;6375076;22;8721;-86
2023/06/04 09:51:08;;;;;;;;;3.75;3.75;;;;;;;;6375365;22;11585;-80
2023/06/04 09:53:33;;;;;;;;;2.25;2.25;;;;;;;;6375209;22;11015;-85
2023/06/04 09:55:59;;;;;;;;;2.00;2.00;;;;;;;;6375156;22;10648;-80
2023/06/04 09:58:27;;;;;;;;;3.25;2.50;;;;;;;;6375558;22;9479;-81
2023/06/04 10:00:55;;;;;;;;;8.00;5.75;;;;;;;;6377555;22;8772;-80
2023/06/04 10:03:23;;;;;;;;;2.00;2.00;;;;;;;;6375965;22;10948;-77
2023/06/04 10:05:49;;;;;;;;;2.00;2.00;;;;;;;;6376278;22;10620;-90
2023/06/04 10:08:15;;;;;;;;;4.00;4.00;;;;;;;;6376221;22;10782;-83
2023/06/04 10:10:41;;;;;;;;;0.75;0.75;;;;;;;;6376405;22;10694;-68
2023/06/04 10:13:16;;;;;;;;;2.00;2.00;;;;;;;;6376280;22;10950;-70
2023/06/04 10:15:42;;;;;;;;;1.75;1.50;;;;;;;;6376060;22;8709;-70
2023/06/04 10:18:07;;;;;;;;;1.00;1.00;;;;;;;;6375945;22;10793;-69
2023/06/04 10:20:33;;;;;;;;;3.00;3.00;;;;;;;;6376185;22;8862;-69
2023/06/04 10:23:00;;;;;;;;;2.50;2.00;;;;;;;;6376169;22;8762;-72
2023/06/04 10:25:26;;;;;;;;;3.75;3.00;;;;;;;;6376208;22;8744;-70
2023/06/04 10:27:51;;;;;;;;;2.00;2.00;;;;;;;;6347361;22;10859;-70
2023/06/04 10:30:17;;;;;;;;;2.75;2.75;;;;;;;;6376245;22;11381;-70
2023/06/04 10:32:42;;;;;;;;;1.25;1.25;;;;;;;;6376075;22;8736;-69
2023/06/04 10:35:08;;;;;;;;;8.50;8.50;;;;;;;;6375885;22;8770;-68
2023/06/04 10:37:34;;;;;;;;;4.00;4.00;;;;;;;;6375397;22;8906;-69
2023/06/04 10:39:59;;;;;;;;;2.00;2.00;;;;;;;;6376166;22;10900;-69
2023/06/04 10:42:25;;;;;;;;;3.50;3.50;;;;;;;;6375851;22;8771;-69
2023/06/04 10:44:51;;;;;;;;;2.50;2.50;;;;;;;;6376176;22;8763;-69
2023/06/04 10:47:23;;;;;;;;;1.75;1.75;;;;;;;;6376093;22;8724;-69
2023/06/04 10:49:52;;;;;;;;;3.25;2.50;;;;;;;;6375555;22;10835;-68
2023/06/04 10:52:18;;;;;;;;;2.25;2.25;;;;;;;;6373140;22;11043;-68
2023/06/04 10:54:45;;;;;;;;;2.50;1.50;;;;;;;;6375644;22;10958;-68
2023/06/04 10:57:13;;;;;;;;;3.50;2.75;;;;;;;;6375704;22;8736;-68
2023/06/04 10:59:38;;;;;;;;;2.75;1.75;;;;;;;;6375735;22;10874;-68
2023/06/04 11:02:04;;;;;;;;;4.75;4.75;;;;;;;;6376052;22;10879;-73
2023/06/04 11:04:29;;;;;;;;;0.00;0.00;;;;;;;;6376317;22;8778;-74
2023/06/04 11:07:08;;;;;;;;;3.50;2.50;;;;;;;;6375658;22;8851;-72
2023/06/04 11:09:33;;;;;;;;;1.25;1.25;;;;;;;;6376182;22;8712;-75
2023/06/04 11:11:59;;;;;;;;;3.00;2.75;;;;;;;;6343500;22;11007;-71
2023/06/04 11:14:25;;;;;;;;;3.00;2.00;;;;;;;;6375288;22;8746;-72
2023/06/04 11:16:50;;;;;;;;;2.50;1.75;;;;;;;;6375762;22;11115;-71
2023/06/04 11:19:15;;;;;;;;;2.25;2.25;;;;;;;;6347112;22;8771;-71
2023/06/04 11:21:40;;;;;;;;;4.75;3.25;;;;;;;;6374518;22;8759;-71
2023/06/04 11:24:06;;;;;;;;;1.75;1.75;;;;;;;;6375284;22;8771;-70
2023/06/04 11:26:35;;;;;;;;;3.00;3.00;;;;;;;;6376101;22;8797;-69
2023/06/04 11:29:01;;;;;;;;;2.00;2.00;;;;;;;;6375630;22;8806;-68
2023/06/04 11:31:27;;;;;;;;;3.50;3.50;;;;;;;;6375751;22;10733;-68
2023/06/04 11:33:52;;;;;;;;;3.00;3.00;;;;;;;;6375721;22;8755;-71
2023/06/04 11:36:27;;;;;;;;;2.00;1.50;;;;;;;;6375498;22;8760;-70
2023/06/04 11:38:56;;;;;;;;;3.00;1.00;;;;;;;;6375483;22;9492;-70
2023/06/04 11:41:22;;;;;;;;;2.25;2.25;;;;;;;;6375685;22;10860;-68
2023/06/04 11:43:47;;;;;;;;;2.25;2.25;;;;;;;;6375710;22;11394;-68
2023/06/04 11:46:13;;;;;;;;;5.75;2.50;;;;;;;;6375861;22;9511;-68
2023/06/04 11:48:38;;;;;;;;;3.00;3.00;;;;;;;;6375742;22;8752;-68
2023/06/04 11:51:08;;;;;;;;;3.75;2.75;;;;;;;;6375630;22;8760;-68
2023/06/04 11:53:34;;;;;;;;;1.50;1.50;;;;;;;;6375450;22;8742;-68
2023/06/04 11:56:00;;;;;;;;;3.75;2.75;;;;;;;;6375108;22;10779;-67
2023/06/04 11:58:25;;;;;;;;;4.25;3.25;;;;;;;;6375656;22;10676;-71
2023/06/04 12:00:50;;;;;;;;;3.00;3.00;;;;;;;;6375385;22;8771;-72
2023/06/04 12:03:15;;;;;;;;;3.50;3.50;;;;;;;;6375498;22;8766;-69
2023/06/04 12:05:41;;;;;;;;;4.50;3.75;;;;;;;;6375502;22;8838;-69
2023/06/04 12:08:08;;;;;;;;;4.25;3.50;;;;;;;;6375325;22;8825;-71
2023/06/04 12:10:38;;;;;;;;;3.75;3.00;;;;;;;;6375458;22;8732;-71
2023/06/04 12:13:03;;;;;;;;;3.50;3.50;;;;;;;;6375585;22;10553;-72
2023/06/04 12:15:29;;;;;;;;;3.25;3.25;;;;;;;;6375415;22;10732;-71
2023/06/04 12:17:54;;;;;;;;;4.00;3.00;;;;;;;;6375723;22;8786;-69
2023/06/04 12:20:32;;;;;;;;;2.50;2.50;;;;;;;;6375055;22;8779;-67
2023/06/04 12:22:57;;;;;;;;;3.25;3.25;;;;;;;;6374581;22;8808;-66
2023/06/04 12:25:24;;;;;;;;;3.50;3.50;;;;;;;;6375038;22;10802;-67
2023/06/04 12:27:49;;;;;;;;;3.25;3.25;;;;;;;;6375297;22;8728;-66
2023/06/04 12:30:15;;;;;;;;;3.50;3.00;;;;;;;;6375144;22;10808;-66
2023/06/04 12:32:42;;;;;;;;;3.00;3.00;;;;;;;;6375926;22;8724;-68
2023/06/04 12:35:07;;;;;;;;;3.50;2.50;;;;;;;;6374920;22;8744;-71
2023/06/04 12:37:32;;;;;;;;;3.75;3.25;;;;;;;;6375157;22;10803;-66
2023/06/04 12:39:57;;;;;;;;;2.50;2.50;;;;;;;;6374982;22;8782;-66
2023/06/04 12:42:23;;;;;;;;;3.75;3.75;;;;;;;;6375305;22;8775;-67
2023/06/04 12:44:48;;;;;;;;;1.00;1.00;;;;;;;;6375104;22;8752;-67
2023/06/04 12:47:14;;;;;;;;;3.00;3.00;;;;;;;;6374879;22;8760;-67
2023/06/04 12:49:39;;;;;;;;;2.00;2.00;;;;;;;;6374850;22;8740;-67
2023/06/04 12:52:05;;;;;;;;;2.00;2.00;;;;;;;;6375419;22;10686;-67
2023/06/04 12:54:30;;;;;;;;;6.50;3.00;;;;;;;;6375673;22;8740;-67
2023/06/04 12:56:58;;;;;;;;;1.25;1.25;;;;;;;;6375434;22;8763;-68
2023/06/04 12:59:27;;;;;;;;;2.75;2.75;;;;;;;;6375044;22;8787;-77
2023/06/04 13:01:55;;;;;;;;;1.25;1.25;;;;;;;;6374908;22;10912;-76
2023/06/04 13:04:20;;;;;;;;;3.00;1.50;;;;;;;;6375180;22;10564;-75
2023/06/04 13:06:46;;;;;;;;;4.25;2.75;;;;;;;;6374904;22;10573;-75
2023/06/04 13:09:12;;;;;;;;;1.75;1.75;;;;;;;;6374921;22;8732;-76
2023/06/04 13:11:38;;;;;;;;;3.00;2.00;;;;;;;;6346672;22;8910;-76
2023/06/04 13:14:03;;;;;;;;;2.50;2.50;;;;;;;;6375100;22;11373;-76
2023/06/04 13:16:28;;;;;;;;;3.00;3.00;;;;;;;;6374722;22;8779;-77
2023/06/04 13:18:53;;;;;;;;;2.00;2.00;;;;;;;;6374612;22;8756;-77
2023/06/04 13:21:18;;;;;;;;;3.50;3.50;;;;;;;;6374858;22;8768;-76
2023/06/04 13:23:44;;;;;;;;;3.00;3.00;;;;;;;;6374197;22;8767;-77
2023/06/04 13:26:09;;;;;;;;;3.00;3.00;;;;;;;;6375863;22;8767;-76
2023/06/04 13:28:34;;;;;;;;;2.00;2.00;;;;;;;;6374641;22;8847;-76
2023/06/04 13:31:00;;;;;;;;;0.50;0.50;;;;;;;;6374386;22;8779;-76
2023/06/04 13:33:25;;;;;;;;;2.75;2.75;;;;;;;;6374919;22;8748;-75
2023/06/04 13:35:50;;;;;;;;;1.75;1.75;;;;;;;;6376095;22;9488;-75
2023/06/04 13:38:16;;;;;;;;;3.00;3.00;;;;;;;;6376511;22;8752;-67
2023/06/04 13:40:42;;;;;;;;;3.00;3.00;;;;;;;;6377712;22;8760;-75
2023/06/04 13:43:08;;;;;;;;;2.00;2.00;;;;;;;;6377002;22;8728;-73
2023/06/04 13:45:34;;;;;;;;;1.00;1.00;;;;;;;;6376044;22;10832;-71
2023/06/04 13:48:02;;;;;;;;;3.75;2.75;;;;;;;;6376737;22;8797;-71
2023/06/04 13:50:28;;;;;;;;;4.25;2.75;;;;;;;;6376221;22;8716;-71
2023/06/04 13:52:53;;;;;;;;;0.50;0.50;;;;;;;;6376313;22;10660;-70
2023/06/04 13:55:18;;;;;;;;;1.75;1.75;;;;;;;;6376388;22;8724;-72
2023/06/04 13:57:43;;;;;;;;;3.75;2.50;;;;;;;;6375648;22;8783;-72
2023/06/04 14:00:09;;;;;;;;;2.00;2.00;;;;;;;;6375678;22;8802;-71
2023/06/04 14:02:34;;;;;;;;;0.75;0.75;;;;;;;;6375893;22;8774;-69
2023/06/04 14:05:00;;;;;;;;;3.50;2.00;;;;;;;;6375891;22;11284;-76
2023/06/04 14:07:25;;;;;;;;;1.00;1.00;;;;;;;;6375911;22;9978;-79
2023/06/04 14:09:54;;;;;;;;;2.75;2.00;;;;;;;;6375328;22;8760;-78
2023/06/04 14:12:19;;;;;;;;;2.25;2.25;;;;;;;;6374709;22;8731;-77
2023/06/04 14:14:45;;;;;;;;;2.50;2.50;;;;;;;;6373852;22;11924;-77
2023/06/04 14:17:10;;;;;;;;;4.25;1.25;;;;;;;;6373980;22;8751;-78
2023/06/04 14:19:35;;;;;;;;;1.75;1.75;;;;;;;;6375406;22;8874;-78
2023/06/04 14:22:01;;;;;;;;;2.75;2.75;;;;;;;;6374270;22;9642;-78
2023/06/04 14:24:26;;;;;;;;;3.75;2.75;;;;;;;;6374827;22;8806;-79
2023/06/04 14:26:51;;;;;;;;;2.50;0.75;;;;;;;;6375052;22;8768;-78
2023/06/04 14:29:17;;;;;;;;;2.00;2.00;;;;;;;;6374759;22;8760;-77
2023/06/04 14:31:42;;;;;;;;;2.00;2.00;;;;;;;;6346681;22;8748;-80
2023/06/04 14:34:08;;;;;;;;;2.00;2.00;;;;;;;;6376434;22;8883;-77
2023/06/04 14:36:33;;;;;;;;;2.00;2.00;;;;;;;;6347510;22;9545;-78
2023/06/04 14:38:59;;;;;;;;;2.00;2.00;;;;;;;;6375896;22;10744;-74
2023/06/04 14:41:24;;;;;;;;;3.25;1.00;;;;;;;;6376470;22;8771;-75
2023/06/04 14:43:49;;;;;;;;;2.00;2.00;;;;;;;;6375906;22;9024;-75